Time;durP1;ratioP1;P1;durP2;ratioP2;P2;SDS_P1;SDS_P2;PMS_P1;PMS_P2;Temp;Humidity;BMP_temperature;BMP_pressure;BME280_temperature;BME280_humidity;BME280_pressure;Samples;Min_cycle;Max_cycle;Signal;HPM_P1;HPM_P2
2023/07/07 00:01:55;;;;;;;3.65;2.42;;;;;;;;;;5143919;27;20529;-67
2023/07/07 00:04:22;;;;;;;3.00;2.78;;;;;;;;;;5144275;27;20400;-67
2023/07/07 00:06:48;;;;;;;2.95;2.75;;;;;;;;;;5144035;27;20194;-67
2023/07/07 00:09:15;;;;;;;4.60;3.17;;;;;;;;;;5143945;27;20248;-67
2023/07/07 00:11:41;;;;;;;3.72;3.22;;;;;;;;;;5143499;27;20423;-67
2023/07/07 00:14:08;;;;;;;3.53;3.00;;;;;;;;;;5143632;27;20204;-67
2023/07/07 00:16:36;;;;;;;2.90;2.70;;;;;;;;;;5143885;27;20221;-67
2023/07/07 00:19:09;;;;;;;2.97;2.80;;;;;;;;;;5143811;27;20503;-67
2023/07/07 00:21:35;;;;;;;4.93;2.80;;;;;;;;;;5143398;27;20283;-67
2023/07/07 00:24:02;;;;;;;4.90;3.00;;;;;;;;;;5143682;27;20502;-67
2023/07/07 00:26:28;;;;;;;4.32;3.25;;;;;;;;;;5143189;27;20194;-67
2023/07/07 00:28:54;;;;;;;2.90;2.70;;;;;;;;;;5143915;27;20214;-67
2023/07/07 00:31:21;;;;;;;4.22;3.28;;;;;;;;;;5143439;27;20191;-67
2023/07/07 00:33:47;;;;;;;3.40;3.03;;;;;;;;;;5143617;27;20194;-67
2023/07/07 00:36:15;;;;;;;7.22;3.40;;;;;;;;;;5143629;27;20194;-67
2023/07/07 00:38:41;;;;;;;3.65;3.35;;;;;;;;;;5143468;27;20194;-67
2023/07/07 00:41:08;;;;;;;3.47;3.20;;;;;;;;;;5143056;27;20225;-67
2023/07/07 00:43:35;;;;;;;3.13;2.95;;;;;;;;;;5143610;27;20200;-67
2023/07/07 00:46:02;;;;;;;3.40;3.13;;;;;;;;;;5143187;27;20201;-67
2023/07/07 00:48:30;;;;;;;5.25;2.85;;;;;;;;;;5143359;27;20459;-67
2023/07/07 00:50:59;;;;;;;4.72;3.08;;;;;;;;;;5143291;27;20402;-67
2023/07/07 00:53:27;;;;;;;4.35;3.50;;;;;;;;;;5143243;27;20459;-67
2023/07/07 00:55:57;;;;;;;3.10;2.85;;;;;;;;;;5143257;27;20559;-67
2023/07/07 00:58:24;;;;;;;2.72;2.53;;;;;;;;;;5142948;27;20194;-67
2023/07/07 01:00:52;;;;;;;3.50;2.80;;;;;;;;;;5143020;27;20559;-66
2023/07/07 01:03:22;;;;;;;3.20;2.92;;;;;;;;;;5143082;27;20201;-66
2023/07/07 01:05:49;;;;;;;4.82;2.83;;;;;;;;;;5143436;27;20265;-66
2023/07/07 01:08:15;;;;;;;3.05;2.85;;;;;;;;;;5142982;27;20194;-66
2023/07/07 01:10:43;;;;;;;2.83;2.67;;;;;;;;;;5143281;27;20197;-66
2023/07/07 01:13:09;;;;;;;4.30;3.00;;;;;;;;;;5142782;27;20211;-67
2023/07/07 01:15:41;;;;;;;3.08;2.90;;;;;;;;;;5143100;27;20200;-67
2023/07/07 01:18:15;;;;;;;4.80;3.15;;;;;;;;;;5143113;27;20217;-67
2023/07/07 01:20:44;;;;;;;3.13;2.92;;;;;;;;;;5142953;27;20281;-67
2023/07/07 01:23:39;;;;;;;4.25;3.20;;;;;;;;;;5142946;27;20204;-67
2023/07/07 01:26:15;;;;;;;4.72;3.13;;;;;;;;;;5143046;27;20194;-67
2023/07/07 01:28:53;;;;;;;4.47;2.70;;;;;;;;;;5142410;27;20417;-67
2023/07/07 01:31:24;;;;;;;3.25;2.97;;;;;;;;;;5142719;27;20566;-66
2023/07/07 01:33:50;;;;;;;3.17;2.95;;;;;;;;;;5142975;27;20551;-66
2023/07/07 01:36:17;;;;;;;3.95;3.08;;;;;;;;;;5142917;27;20506;-67
2023/07/07 01:38:45;;;;;;;2.80;2.60;;;;;;;;;;5146144;27;20194;-67
2023/07/07 01:41:16;;;;;;;3.78;2.75;;;;;;;;;;5146437;27;20225;-67
2023/07/07 01:43:45;;;;;;;3.42;3.17;;;;;;;;;;5146781;27;20389;-66
2023/07/07 01:46:15;;;;;;;5.70;3.22;;;;;;;;;;5146639;27;20201;-66
2023/07/07 01:48:47;;;;;;;3.40;3.10;;;;;;;;;;5146726;27;20239;-66
2023/07/07 01:51:14;;;;;;;3.42;3.13;;;;;;;;;;5146257;27;20197;-66
2023/07/07 01:53:41;;;;;;;3.20;2.90;;;;;;;;;;5146900;27;20266;-66
2023/07/07 01:56:07;;;;;;;3.35;2.92;;;;;;;;;;5146648;27;20386;-66
2023/07/07 01:58:35;;;;;;;2.67;2.58;;;;;;;;;;5146481;27;20201;-66
2023/07/07 02:01:02;;;;;;;3.90;3.05;;;;;;;;;;5146089;27;20549;-66
2023/07/07 02:03:28;;;;;;;3.38;2.85;;;;;;;;;;5146681;27;20209;-66
2023/07/07 02:05:56;;;;;;;3.13;2.92;;;;;;;;;;5146229;27;20217;-66
2023/07/07 02:08:22;;;;;;;5.88;3.42;;;;;;;;;;5146614;27;20202;-66
2023/07/07 02:10:48;;;;;;;3.30;3.00;;;;;;;;;;5146506;27;20213;-66
2023/07/07 02:13:15;;;;;;;3.28;3.03;;;;;;;;;;5146264;27;20190;-66
2023/07/07 02:15:41;;;;;;;3.00;2.80;;;;;;;;;;5146135;27;20194;-66
2023/07/07 02:18:07;;;;;;;3.90;2.58;;;;;;;;;;5146242;27;20321;-67
2023/07/07 02:20:34;;;;;;;2.67;2.50;;;;;;;;;;5145879;27;20251;-67
2023/07/07 02:23:01;;;;;;;4.82;3.10;;;;;;;;;;5145875;27;20194;-67
2023/07/07 02:25:28;;;;;;;3.65;3.33;;;;;;;;;;5146034;27;20502;-67
2023/07/07 02:27:54;;;;;;;2.78;2.58;;;;;;;;;;5145894;27;20465;-67
2023/07/07 02:30:20;;;;;;;2.75;2.65;;;;;;;;;;5145813;27;20195;-67
2023/07/07 02:32:46;;;;;;;2.75;2.65;;;;;;;;;;5145585;27;20198;-67
2023/07/07 02:35:13;;;;;;;3.55;3.25;;;;;;;;;;5145645;27;20255;-66
2023/07/07 02:37:40;;;;;;;2.75;2.65;;;;;;;;;;5145731;27;20209;-66
2023/07/07 02:40:09;;;;;;;3.45;3.15;;;;;;;;;;5145565;27;20210;-66
2023/07/07 02:42:35;;;;;;;3.10;2.90;;;;;;;;;;5145208;27;20281;-67
2023/07/07 02:45:02;;;;;;;3.45;3.15;;;;;;;;;;5145576;27;20194;-67
2023/07/07 02:47:28;;;;;;;3.40;3.10;;;;;;;;;;5145361;27;20216;-67
2023/07/07 02:49:55;;;;;;;5.32;3.13;;;;;;;;;;5145434;27;20390;-67
2023/07/07 02:52:21;;;;;;;7.00;3.20;;;;;;;;;;5145303;27;20214;-67
2023/07/07 02:54:47;;;;;;;3.22;3.03;;;;;;;;;;5145543;27;20201;-67
2023/07/07 02:57:15;;;;;;;5.63;3.13;;;;;;;;;;5145337;27;20401;-67
2023/07/07 02:59:41;;;;;;;3.47;3.00;;;;;;;;;;5145008;27;20202;-67
2023/07/07 03:02:07;;;;;;;3.03;2.83;;;;;;;;;;5144994;27;20223;-67
2023/07/07 03:04:34;;;;;;;2.75;2.65;;;;;;;;;;5145329;27;20195;-67
2023/07/07 03:07:00;;;;;;;2.58;2.47;;;;;;;;;;5145149;27;20208;-67
2023/07/07 03:09:26;;;;;;;3.50;3.20;;;;;;;;;;5145095;27;20194;-67
2023/07/07 03:11:53;;;;;;;3.70;3.40;;;;;;;;;;5144747;27;20190;-67
2023/07/07 03:14:20;;;;;;;3.25;3.05;;;;;;;;;;5145114;27;20527;-67
2023/07/07 03:16:51;;;;;;;2.80;2.67;;;;;;;;;;5144848;27;20194;-67
2023/07/07 03:19:18;;;;;;;4.15;3.00;;;;;;;;;;5145181;27;20195;-67
2023/07/07 03:21:44;;;;;;;2.90;2.70;;;;;;;;;;5144863;27;20218;-67
2023/07/07 03:24:10;;;;;;;3.53;2.75;;;;;;;;;;5145288;27;20198;-67
2023/07/07 03:26:37;;;;;;;2.80;2.63;;;;;;;;;;5144641;27;20198;-67
2023/07/07 03:29:03;;;;;;;3.13;2.90;;;;;;;;;;5144704;27;20219;-67
2023/07/07 03:31:31;;;;;;;3.40;3.10;;;;;;;;;;5144457;27;20190;-67
2023/07/07 03:33:59;;;;;;;3.85;3.55;;;;;;;;;;5144747;27;20198;-67
2023/07/07 03:36:26;;;;;;;3.05;2.80;;;;;;;;;;5144745;27;20194;-66
2023/07/07 03:38:52;;;;;;;3.70;3.20;;;;;;;;;;5144622;27;20525;-66
2023/07/07 03:41:20;;;;;;;7.45;3.33;;;;;;;;;;5144214;27;20206;-66
2023/07/07 03:43:47;;;;;;;3.78;3.58;;;;;;;;;;5144340;27;20202;-66
2023/07/07 03:46:13;;;;;;;5.97;3.50;;;;;;;;;;5144503;27;20263;-67
2023/07/07 03:48:41;;;;;;;4.03;3.00;;;;;;;;;;5144528;27;20253;-67
2023/07/07 03:51:07;;;;;;;3.50;3.00;;;;;;;;;;5144064;27;20198;-67
2023/07/07 03:53:34;;;;;;;4.47;4.00;;;;;;;;;;5144301;27;20198;-67
2023/07/07 03:56:00;;;;;;;3.75;3.45;;;;;;;;;;5144139;27;20220;-66
2023/07/07 03:58:27;;;;;;;3.58;3.28;;;;;;;;;;5143812;27;20194;-66
2023/07/07 04:00:54;;;;;;;3.35;3.15;;;;;;;;;;5143402;27;20529;-66
2023/07/07 04:03:20;;;;;;;4.18;3.80;;;;;;;;;;5143975;27;20235;-66
2023/07/07 04:05:49;;;;;;;3.85;3.25;;;;;;;;;;5144097;27;20195;-66
2023/07/07 04:08:21;;;;;;;5.20;3.60;;;;;;;;;;5144018;27;20198;-66
2023/07/07 04:10:57;;;;;;;4.15;3.55;;;;;;;;;;5144292;27;20299;-66
2023/07/07 04:13:23;;;;;;;3.78;3.47;;;;;;;;;;5143989;27;20247;-66
2023/07/07 04:15:57;;;;;;;3.85;3.53;;;;;;;;;;5144094;27;20198;-69
2023/07/07 04:18:23;;;;;;;6.22;3.92;;;;;;;;;;5144008;27;20194;-69
2023/07/07 04:20:50;;;;;;;6.00;3.65;;;;;;;;;;5143867;27;20200;-69
2023/07/07 04:23:17;;;;;;;5.55;3.63;;;;;;;;;;5143436;27;20218;-69
2023/07/07 04:25:44;;;;;;;3.88;3.60;;;;;;;;;;5143495;27;20201;-69
2023/07/07 04:28:11;;;;;;;3.50;3.20;;;;;;;;;;5143755;27;20222;-69
2023/07/07 04:30:37;;;;;;;3.97;3.65;;;;;;;;;;5143743;27;20547;-69
2023/07/07 04:33:03;;;;;;;6.20;4.03;;;;;;;;;;5143494;27;20197;-69
2023/07/07 04:35:30;;;;;;;4.32;3.17;;;;;;;;;;5143630;27;20526;-69
2023/07/07 04:37:57;;;;;;;5.07;4.03;;;;;;;;;;5143574;27;20201;-69
2023/07/07 04:40:23;;;;;;;5.93;3.70;;;;;;;;;;5143629;27;20247;-69
2023/07/07 04:42:50;;;;;;;5.38;3.72;;;;;;;;;;5143208;27;20214;-69
2023/07/07 04:45:16;;;;;;;5.57;4.25;;;;;;;;;;5143492;27;20194;-69
2023/07/07 04:47:42;;;;;;;4.40;3.97;;;;;;;;;;5143514;27;20198;-69
2023/07/07 04:50:09;;;;;;;5.43;3.92;;;;;;;;;;5143369;27;20194;-69
2023/07/07 04:52:38;;;;;;;4.55;3.70;;;;;;;;;;5143041;27;20190;-69
2023/07/07 04:55:07;;;;;;;5.75;3.80;;;;;;;;;;5143471;27;20198;-69
2023/07/07 04:57:33;;;;;;;4.38;3.72;;;;;;;;;;5143227;27;20239;-69
2023/07/07 04:59:59;;;;;;;7.35;3.80;;;;;;;;;;5143293;27;20214;-69
2023/07/07 05:02:26;;;;;;;6.40;3.97;;;;;;;;;;5143135;27;20429;-69
2023/07/07 05:04:52;;;;;;;5.13;3.88;;;;;;;;;;5143111;27;20221;-69
2023/07/07 05:07:18;;;;;;;5.97;3.85;;;;;;;;;;5142996;27;20201;-69
2023/07/07 05:09:44;;;;;;;6.18;4.35;;;;;;;;;;5143414;27;20199;-69
2023/07/07 05:12:13;;;;;;;8.73;4.43;;;;;;;;;;5144117;27;20190;-69
2023/07/07 05:14:39;;;;;;;8.57;4.57;;;;;;;;;;5147442;27;20218;-69
2023/07/07 05:17:05;;;;;;;6.10;4.82;;;;;;;;;;5147548;27;20528;-69
2023/07/07 05:19:32;;;;;;;6.10;4.95;;;;;;;;;;5147366;27;20195;-69
2023/07/07 05:21:58;;;;;;;7.57;5.32;;;;;;;;;;5147011;27;20210;-70
2023/07/07 05:24:25;;;;;;;10.30;4.88;;;;;;;;;;5147395;27;20194;-69
2023/07/07 05:26:51;;;;;;;8.23;4.45;;;;;;;;;;5147315;27;20426;-69
2023/07/07 05:29:19;;;;;;;8.43;4.30;;;;;;;;;;5147076;27;20427;-69
2023/07/07 05:31:45;;;;;;;7.47;4.22;;;;;;;;;;5146904;27;20417;-69
2023/07/07 05:34:11;;;;;;;5.63;4.93;;;;;;;;;;5146988;27;20198;-69
2023/07/07 05:36:38;;;;;;;6.03;4.50;;;;;;;;;;5147192;27;20274;-69
2023/07/07 05:39:06;;;;;;;6.00;4.43;;;;;;;;;;5146799;27;20228;-69
2023/07/07 05:41:32;;;;;;;8.07;5.07;;;;;;;;;;5146951;27;20231;-69
2023/07/07 05:43:58;;;;;;;12.82;4.97;;;;;;;;;;5146853;27;20494;-69
2023/07/07 05:46:26;;;;;;;7.07;5.10;;;;;;;;;;5146910;27;20218;-69
2023/07/07 05:48:52;;;;;;;5.93;5.05;;;;;;;;;;5146633;27;20194;-69
2023/07/07 05:51:19;;;;;;;5.85;4.95;;;;;;;;;;5146456;27;20198;-69
2023/07/07 05:53:47;;;;;;;7.25;4.50;;;;;;;;;;5146778;27;20191;-69
2023/07/07 05:56:14;;;;;;;7.63;4.50;;;;;;;;;;5146637;27;20448;-69
2023/07/07 05:58:40;;;;;;;4.90;4.50;;;;;;;;;;5147131;27;20489;-70
2023/07/07 06:01:09;;;;;;;6.93;4.47;;;;;;;;;;5146424;27;20493;-69
2023/07/07 06:03:39;;;;;;;6.63;4.57;;;;;;;;;;5146178;27;20607;-69
2023/07/07 06:06:05;;;;;;;5.13;4.53;;;;;;;;;;5146500;27;20202;-69
2023/07/07 06:08:32;;;;;;;6.00;4.60;;;;;;;;;;5146454;27;20202;-69
2023/07/07 06:10:58;;;;;;;5.55;4.63;;;;;;;;;;5134239;27;20555;-70
2023/07/07 06:13:24;;;;;;;7.82;5.00;;;;;;;;;;5141196;27;20210;-70
2023/07/07 06:15:51;;;;;;;7.43;4.45;;;;;;;;;;5141165;27;20202;-70
2023/07/07 06:18:17;;;;;;;8.48;4.47;;;;;;;;;;5141155;27;20406;-70
2023/07/07 06:20:48;;;;;;;8.68;4.65;;;;;;;;;;5141188;27;20206;-69
2023/07/07 06:23:14;;;;;;;7.88;5.15;;;;;;;;;;5140275;27;20777;-70
2023/07/07 06:25:41;;;;;;;7.03;4.70;;;;;;;;;;5138464;27;20245;-70
2023/07/07 06:28:07;;;;;;;4.75;4.32;;;;;;;;;;5136534;27;20222;-69
2023/07/07 06:30:34;;;;;;;6.50;4.57;;;;;;;;;;5138945;27;20210;-69
2023/07/07 06:33:02;;;;;;;5.03;4.30;;;;;;;;;;5139045;27;20207;-69
2023/07/07 06:35:29;;;;;;;8.55;4.85;;;;;;;;;;5139031;27;20211;-70
2023/07/07 06:37:56;;;;;;;7.30;4.50;;;;;;;;;;5139758;27;20233;-70
2023/07/07 06:40:23;;;;;;;5.00;4.53;;;;;;;;;;5140289;27;20212;-70
2023/07/07 06:42:50;;;;;;;5.85;4.85;;;;;;;;;;5138214;27;20263;-70
2023/07/07 06:45:16;;;;;;;6.28;4.57;;;;;;;;;;5138758;27;20208;-70
2023/07/07 06:47:43;;;;;;;9.25;3.83;;;;;;;;;;5139693;27;20210;-70
2023/07/07 06:50:10;;;;;;;9.15;4.38;;;;;;;;;;5139312;27;20232;-70
2023/07/07 06:52:41;;;;;;;6.97;4.47;;;;;;;;;;5139292;27;20321;-70
2023/07/07 06:55:09;;;;;;;4.93;4.50;;;;;;;;;;5139105;27;20272;-70
2023/07/07 06:57:35;;;;;;;10.35;4.38;;;;;;;;;;5139541;27;20210;-70
2023/07/07 07:00:01;;;;;;;7.40;4.20;;;;;;;;;;5138595;27;20218;-70
2023/07/07 07:02:27;;;;;;;5.45;3.95;;;;;;;;;;5139015;27;20488;-70
2023/07/07 07:04:54;;;;;;;8.30;4.35;;;;;;;;;;5139412;27;20203;-70
2023/07/07 07:07:20;;;;;;;6.70;4.25;;;;;;;;;;5139290;27;20214;-70
2023/07/07 07:09:46;;;;;;;10.20;4.20;;;;;;;;;;5139745;27;20217;-70
2023/07/07 07:12:14;;;;;;;4.75;4.05;;;;;;;;;;5137943;27;20202;-70
2023/07/07 07:14:40;;;;;;;6.63;4.30;;;;;;;;;;5138691;27;20221;-56
2023/07/07 07:17:07;;;;;;;11.73;4.40;;;;;;;;;;5138541;27;20218;-56
2023/07/07 07:19:33;;;;;;;6.70;4.00;;;;;;;;;;5138781;27;20214;-54
2023/07/07 07:22:00;;;;;;;4.55;4.15;;;;;;;;;;5138183;27;20214;-56
2023/07/07 07:24:26;;;;;;;4.78;4.20;;;;;;;;;;5138334;27;20221;-56
2023/07/07 07:26:52;;;;;;;4.88;4.38;;;;;;;;;;5138200;27;20198;-56
2023/07/07 07:29:20;;;;;;;8.32;4.15;;;;;;;;;;5137581;27;20215;-56
2023/07/07 07:31:46;;;;;;;5.95;3.63;;;;;;;;;;5138397;27;20210;-56
2023/07/07 07:34:23;;;;;;;4.72;3.65;;;;;;;;;;5138575;27;20274;-57
2023/07/07 07:36:49;;;;;;;4.20;3.88;;;;;;;;;;5138325;27;20418;-57
2023/07/07 07:39:15;;;;;;;7.18;3.63;;;;;;;;;;5138275;27;20214;-56
2023/07/07 07:41:42;;;;;;;7.43;4.50;;;;;;;;;;5137839;27;20412;-56
2023/07/07 07:44:09;;;;;;;7.07;4.80;;;;;;;;;;5138029;27;20617;-55
2023/07/07 07:46:36;;;;;;;5.50;4.70;;;;;;;;;;5138101;27;20435;-56
2023/07/07 07:49:03;;;;;;;6.78;4.57;;;;;;;;;;5138134;27;20240;-57
2023/07/07 07:51:29;;;;;;;6.97;4.40;;;;;;;;;;5138032;27;20210;-57
2023/07/07 07:53:55;;;;;;;6.60;4.45;;;;;;;;;;5137490;27;20206;-57
2023/07/07 07:56:22;;;;;;;5.35;4.00;;;;;;;;;;5137524;27;20505;-55
2023/07/07 07:58:48;;;;;;;4.30;3.60;;;;;;;;;;5137492;27;20441;-57
2023/07/07 08:01:14;;;;;;;6.35;4.53;;;;;;;;;;5137010;27;20540;-57
2023/07/07 08:03:42;;;;;;;8.43;4.65;;;;;;;;;;5137810;27;20557;-55
2023/07/07 08:06:08;;;;;;;4.78;3.90;;;;;;;;;;5137146;27;20555;-56
2023/07/07 08:08:35;;;;;;;5.80;3.92;;;;;;;;;;5137688;27;20210;-57
2023/07/07 08:11:02;;;;;;;5.60;3.97;;;;;;;;;;5137486;27;20206;-57
2023/07/07 08:13:28;;;;;;;4.78;4.35;;;;;;;;;;5133763;27;20198;-57
2023/07/07 08:15:54;;;;;;;4.10;3.80;;;;;;;;;;5137714;27;20209;-56
2023/07/07 08:18:21;;;;;;;4.60;3.97;;;;;;;;;;5137500;27;20217;-57
2023/07/07 08:20:48;;;;;;;5.85;4.47;;;;;;;;;;5137079;27;20522;-57
2023/07/07 08:23:15;;;;;;;4.32;3.97;;;;;;;;;;5136523;27;20234;-57
2023/07/07 08:25:41;;;;;;;7.25;4.50;;;;;;;;;;5135995;27;20221;-57
2023/07/07 08:28:07;;;;;;;7.05;4.45;;;;;;;;;;5137374;27;20226;-56
2023/07/07 08:30:33;;;;;;;5.90;4.30;;;;;;;;;;5136937;27;20205;-57
2023/07/07 08:33:00;;;;;;;8.20;4.25;;;;;;;;;;5137274;27;20206;-58
2023/07/07 08:35:26;;;;;;;10.25;4.07;;;;;;;;;;5137104;27;20202;-56
2023/07/07 08:37:54;;;;;;;8.13;4.88;;;;;;;;;;5137338;27;20447;-57
2023/07/07 08:40:22;;;;;;;7.80;4.57;;;;;;;;;;5137121;27;20386;-58
2023/07/07 08:42:48;;;;;;;6.53;4.22;;;;;;;;;;5136758;27;20252;-57
2023/07/07 08:45:16;;;;;;;7.10;4.50;;;;;;;;;;5136587;27;20218;-56
2023/07/07 08:47:51;;;;;;;10.40;4.43;;;;;;;;;;5136571;27;20458;-57
2023/07/07 08:50:22;;;;;;;9.38;4.45;;;;;;;;;;5137024;27;20221;-55
2023/07/07 08:52:53;;;;;;;7.05;4.18;;;;;;;;;;5136794;27;20209;-56
2023/07/07 08:55:32;;;;;;;6.35;4.30;;;;;;;;;;5136853;27;20217;-58
2023/07/07 08:58:02;;;;;;;7.93;4.68;;;;;;;;;;5137038;27;20210;-57
2023/07/07 09:00:31;;;;;;;7.45;4.18;;;;;;;;;;5136223;27;20224;-57
2023/07/07 09:03:10;;;;;;;8.60;4.78;;;;;;;;;;5136502;27;20275;-57
2023/07/07 09:05:42;;;;;;;4.93;4.43;;;;;;;;;;5137262;27;20401;-56
2023/07/07 09:08:13;;;;;;;8.77;5.00;;;;;;;;;;5136846;27;20209;-56
2023/07/07 09:10:45;;;;;;;5.13;4.38;;;;;;;;;;5136448;27;20210;-56
2023/07/07 09:13:16;;;;;;;7.13;4.72;;;;;;;;;;5135540;27;20735;-57
2023/07/07 09:15:45;;;;;;;8.13;4.57;;;;;;;;;;5136328;27;20563;-58
2023/07/07 09:18:15;;;;;;;8.00;5.15;;;;;;;;;;5135722;27;20416;-57
2023/07/07 09:20:43;;;;;;;9.35;4.65;;;;;;;;;;5136812;27;20216;-57
2023/07/07 09:23:12;;;;;;;7.95;4.57;;;;;;;;;;5136237;27;20236;-55
2023/07/07 09:25:41;;;;;;;4.88;4.47;;;;;;;;;;5135912;27;20247;-56
2023/07/07 09:28:09;;;;;;;8.75;5.05;;;;;;;;;;5136099;27;20462;-58
2023/07/07 09:30:40;;;;;;;6.03;5.13;;;;;;;;;;5136534;27;20214;-58
2023/07/07 09:33:08;;;;;;;5.57;5.07;;;;;;;;;;5136325;27;20220;-56
2023/07/07 09:35:35;;;;;;;6.75;5.47;;;;;;;;;;5136379;27;20210;-57
2023/07/07 09:38:06;;;;;;;9.25;4.97;;;;;;;;;;5136551;27;20439;-57
2023/07/07 09:40:39;;;;;;;10.05;5.05;;;;;;;;;;5136375;27;20561;-57
2023/07/07 09:43:14;;;;;;;6.40;5.15;;;;;;;;;;5136503;27;20221;-58
2023/07/07 09:45:44;;;;;;;6.00;5.40;;;;;;;;;;5136525;27;20229;-57
2023/07/07 09:48:18;;;;;;;7.20;5.15;;;;;;;;;;5136727;27;20209;-56
2023/07/07 09:50:48;;;;;;;6.68;5.22;;;;;;;;;;5128615;28;20214;-57
2023/07/07 09:53:17;;;;;;;5.68;5.18;;;;;;;;;;5136915;27;20206;-58
2023/07/07 09:55:44;;;;;;;6.20;5.07;;;;;;;;;;5136771;27;20217;-57
2023/07/07 09:58:15;;;;;;;6.32;5.75;;;;;;;;;;5137764;27;20217;-57
2023/07/07 10:00:43;;;;;;;7.70;5.32;;;;;;;;;;5140700;27;20553;-57
2023/07/07 10:03:16;;;;;;;6.32;5.50;;;;;;;;;;5139888;27;20221;-57
2023/07/07 10:05:42;;;;;;;9.05;6.82;;;;;;;;;;5140727;27;20226;-56
2023/07/07 10:08:12;;;;;;;9.02;7.20;;;;;;;;;;5140141;27;20210;-56
2023/07/07 10:10:38;;;;;;;8.55;5.68;;;;;;;;;;5140629;27;20210;-57
2023/07/07 10:13:08;;;;;;;5.78;5.28;;;;;;;;;;5139726;27;20214;-58
2023/07/07 10:15:42;;;;;;;6.43;5.80;;;;;;;;;;5139665;27;20210;-58
2023/07/07 10:18:13;;;;;;;6.32;5.72;;;;;;;;;;5140346;27;20209;-58
2023/07/07 10:20:40;;;;;;;7.85;6.03;;;;;;;;;;5140262;27;20475;-58
2023/07/07 10:23:09;;;;;;;6.68;6.03;;;;;;;;;;5139727;27;20732;-58
2023/07/07 10:25:36;;;;;;;8.60;6.47;;;;;;;;;;5140325;27;20410;-58
2023/07/07 10:28:02;;;;;;;6.60;6.00;;;;;;;;;;5140012;27;20572;-58
2023/07/07 10:30:29;;;;;;;12.00;6.93;;;;;;;;;;5139255;27;20434;-57
2023/07/07 10:32:57;;;;;;;8.68;7.30;;;;;;;;;;5139208;27;20236;-55
2023/07/07 10:35:25;;;;;;;8.35;7.53;;;;;;;;;;5139732;27;20206;-57
2023/07/07 10:37:51;;;;;;;8.93;7.40;;;;;;;;;;5139338;27;20414;-56
2023/07/07 10:40:21;;;;;;;8.45;7.03;;;;;;;;;;5139376;27;20251;-55
2023/07/07 10:42:50;;;;;;;9.05;8.15;;;;;;;;;;5138892;27;20210;-56
2023/07/07 10:45:17;;;;;;;9.45;8.48;;;;;;;;;;5139158;27;20226;-57
2023/07/07 10:47:43;;;;;;;12.27;8.35;;;;;;;;;;5139252;27;20210;-56
2023/07/07 10:50:14;;;;;;;9.63;7.60;;;;;;;;;;5139404;27;20532;-56
2023/07/07 10:52:47;;;;;;;8.23;7.40;;;;;;;;;;5139161;27;20217;-56
2023/07/07 10:55:17;;;;;;;9.48;8.27;;;;;;;;;;5139101;27;20205;-56
2023/07/07 10:57:49;;;;;;;8.75;7.85;;;;;;;;;;5138962;27;20232;-57
2023/07/07 11:00:31;;;;;;;8.90;7.88;;;;;;;;;;5138813;27;20217;-56
2023/07/07 11:03:11;;;;;;;12.27;8.20;;;;;;;;;;5139175;27;20460;-57
2023/07/07 11:05:42;;;;;;;13.05;7.15;;;;;;;;;;5138837;27;20521;-56
2023/07/07 11:08:16;;;;;;;9.90;7.18;;;;;;;;;;5138447;27;20210;-59
2023/07/07 11:10:53;;;;;;;8.20;7.10;;;;;;;;;;5139139;27;20447;-60
2023/07/07 11:13:23;;;;;;;10.07;7.60;;;;;;;;;;5138303;27;20201;-59
2023/07/07 11:15:52;;;;;;;9.18;7.75;;;;;;;;;;5138275;27;20520;-59
2023/07/07 11:18:32;;;;;;;13.00;8.85;;;;;;;;;;5138898;27;20481;-59
2023/07/07 11:21:06;;;;;;;8.90;7.95;;;;;;;;;;5135610;27;20213;-58
2023/07/07 11:23:47;;;;;;;10.30;8.45;;;;;;;;;;5138749;27;20489;-58
2023/07/07 11:26:17;;;;;;;9.10;8.23;;;;;;;;;;5137797;27;20600;-58
2023/07/07 11:28:47;;;;;;;9.00;7.68;;;;;;;;;;5138250;27;20253;-59
2023/07/07 11:31:21;;;;;;;10.27;8.40;;;;;;;;;;5137624;27;20205;-58
2023/07/07 11:33:54;;;;;;;11.52;8.05;;;;;;;;;;5138272;27;20534;-59
2023/07/07 11:36:33;;;;;;;8.38;7.55;;;;;;;;;;5138321;27;20225;-58
2023/07/07 11:39:05;;;;;;;8.60;7.63;;;;;;;;;;5138051;27;20209;-58
2023/07/07 11:41:39;;;;;;;9.15;8.25;;;;;;;;;;5137741;27;20408;-59
2023/07/07 11:44:14;;;;;;;9.98;8.25;;;;;;;;;;5138173;27;20293;-56
2023/07/07 11:46:46;;;;;;;10.25;8.32;;;;;;;;;;5137548;27;20210;-57
2023/07/07 11:49:21;;;;;;;8.63;7.72;;;;;;;;;;5138103;27;20209;-57
2023/07/07 11:51:55;;;;;;;11.82;8.38;;;;;;;;;;5138085;27;20209;-59
2023/07/07 11:54:30;;;;;;;9.57;8.10;;;;;;;;;;5138110;27;20212;-59
2023/07/07 11:57:02;;;;;;;9.05;7.78;;;;;;;;;;5138063;27;20209;-58
2023/07/07 11:59:39;;;;;;;10.13;7.97;;;;;;;;;;5137591;27;20415;-59
2023/07/07 12:02:12;;;;;;;9.80;8.65;;;;;;;;;;5137683;27;20209;-58
2023/07/07 12:04:40;;;;;;;9.15;8.25;;;;;;;;;;5137500;27;20218;-59
2023/07/07 12:07:14;;;;;;;9.50;7.55;;;;;;;;;;5137985;27;20545;-58
2023/07/07 12:09:42;;;;;;;9.77;8.30;;;;;;;;;;5137930;27;20209;-58
2023/07/07 12:12:11;;;;;;;9.07;8.18;;;;;;;;;;5137176;27;20412;-59
2023/07/07 12:14:41;;;;;;;11.98;8.23;;;;;;;;;;5137015;27;20213;-59
2023/07/07 12:17:12;;;;;;;12.93;8.43;;;;;;;;;;5137171;27;20537;-59
2023/07/07 12:19:40;;;;;;;11.20;8.20;;;;;;;;;;5137496;27;20557;-58
2023/07/07 12:22:12;;;;;;;11.68;7.90;;;;;;;;;;5137079;27;20198;-59
2023/07/07 12:24:43;;;;;;;9.88;7.50;;;;;;;;;;5137359;27;20229;-59
2023/07/07 12:27:13;;;;;;;10.65;8.00;;;;;;;;;;5137258;27;20241;-58
2023/07/07 12:29:41;;;;;;;10.50;8.60;;;;;;;;;;5137079;27;20216;-59
2023/07/07 12:32:08;;;;;;;9.00;7.70;;;;;;;;;;5136680;27;20216;-58
2023/07/07 12:34:36;;;;;;;9.85;8.00;;;;;;;;;;5136688;27;20421;-57
2023/07/07 12:37:03;;;;;;;8.82;7.93;;;;;;;;;;5132086;27;20423;-57
2023/07/07 12:39:29;;;;;;;10.88;7.82;;;;;;;;;;5136869;27;20217;-58
2023/07/07 12:41:57;;;;;;;11.10;8.75;;;;;;;;;;5137026;27;20210;-58
2023/07/07 12:44:23;;;;;;;8.65;7.75;;;;;;;;;;5136770;27;20229;-58
2023/07/07 12:46:49;;;;;;;8.80;7.97;;;;;;;;;;5137057;27;20202;-58
2023/07/07 12:49:18;;;;;;;9.10;8.07;;;;;;;;;;5137195;27;20301;-58
2023/07/07 12:51:45;;;;;;;8.80;7.90;;;;;;;;;;5136498;27;20217;-58
2023/07/07 12:54:28;;;;;;;9.50;8.50;;;;;;;;;;5136965;27;20414;-56
2023/07/07 12:57:01;;;;;;;8.75;7.82;;;;;;;;;;5136423;27;20205;-58
2023/07/07 12:59:35;;;;;;;10.88;7.90;;;;;;;;;;5136851;27;20675;-58
2023/07/07 13:02:03;;;;;;;10.07;7.75;;;;;;;;;;5135989;27;20545;-57
2023/07/07 13:04:38;;;;;;;11.20;7.90;;;;;;;;;;5137130;27;20531;-57
2023/07/07 13:07:06;;;;;;;11.82;8.00;;;;;;;;;;5136767;27;20214;-70
2023/07/07 13:09:46;;;;;;;9.38;7.32;;;;;;;;;;5136962;27;20505;-70
2023/07/07 13:12:27;;;;;;;9.90;7.57;;;;;;;;;;5136437;27;20213;-69
2023/07/07 13:15:02;;;;;;;9.93;7.72;;;;;;;;;;5136652;28;20197;-69
2023/07/07 13:17:28;;;;;;;8.27;7.50;;;;;;;;;;5136530;27;20250;-69
2023/07/07 13:19:56;;;;;;;10.02;7.57;;;;;;;;;;5136750;27;20412;-69
2023/07/07 13:22:30;;;;;;;9.98;7.72;;;;;;;;;;5136133;27;20210;-69
2023/07/07 13:24:58;;;;;;;8.85;7.35;;;;;;;;;;5136624;27;20573;-69
2023/07/07 13:27:24;;;;;;;9.35;7.40;;;;;;;;;;5137171;27;20221;-69
2023/07/07 13:29:53;;;;;;;8.23;7.43;;;;;;;;;;5139864;27;20202;-70
2023/07/07 13:32:28;;;;;;;11.82;7.70;;;;;;;;;;5140104;27;20194;-70
2023/07/07 13:34:54;;;;;;;8.48;7.53;;;;;;;;;;5144417;27;20208;-70
2023/07/07 13:37:21;;;;;;;9.73;7.13;;;;;;;;;;5143282;27;20494;-69
2023/07/07 13:39:47;;;;;;;9.68;7.03;;;;;;;;;;5140094;27;20263;-69
2023/07/07 13:42:20;;;;;;;7.95;7.13;;;;;;;;;;5140253;27;20516;-69
2023/07/07 13:44:46;;;;;;;7.93;7.13;;;;;;;;;;5140739;27;20430;-70
2023/07/07 13:47:16;;;;;;;10.68;7.13;;;;;;;;;;5140135;27;20217;-70
2023/07/07 13:49:45;;;;;;;9.75;7.25;;;;;;;;;;5144405;27;20225;-71
2023/07/07 13:52:14;;;;;;;8.85;7.30;;;;;;;;;;5146450;27;20528;-70
2023/07/07 13:54:41;;;;;;;9.35;6.70;;;;;;;;;;5146773;27;20355;-70
2023/07/07 13:57:08;;;;;;;7.85;7.05;;;;;;;;;;5146465;27;20194;-70
2023/07/07 13:59:34;;;;;;;9.07;7.03;;;;;;;;;;5146453;27;20201;-70
2023/07/07 14:02:02;;;;;;;8.75;7.45;;;;;;;;;;5146117;27;20194;-70
2023/07/07 14:04:32;;;;;;;7.18;6.47;;;;;;;;;;5146242;27;20217;-70
2023/07/07 14:07:00;;;;;;;10.82;7.30;;;;;;;;;;5146532;27;20209;-70
2023/07/07 14:09:27;;;;;;;6.72;6.13;;;;;;;;;;5146884;27;20391;-70
2023/07/07 14:11:55;;;;;;;7.95;7.15;;;;;;;;;;5146689;27;20194;-70
2023/07/07 14:14:22;;;;;;;10.65;6.60;;;;;;;;;;5146586;27;20221;-70
2023/07/07 14:16:50;;;;;;;6.95;6.25;;;;;;;;;;5146400;27;20194;-70
2023/07/07 14:19:19;;;;;;;7.68;5.97;;;;;;;;;;5146499;27;20239;-70
2023/07/07 14:21:47;;;;;;;7.03;6.32;;;;;;;;;;5146597;27;20415;-70
2023/07/07 14:24:15;;;;;;;8.52;6.63;;;;;;;;;;5146276;27;20198;-70
2023/07/07 14:26:42;;;;;;;9.10;6.93;;;;;;;;;;5146369;27;20258;-70
2023/07/07 14:29:12;;;;;;;11.52;6.88;;;;;;;;;;5146280;27;20202;-70
2023/07/07 14:31:39;;;;;;;7.57;6.03;;;;;;;;;;5145824;27;20198;-70
2023/07/07 14:34:06;;;;;;;7.57;6.07;;;;;;;;;;5146067;27;20194;-70
2023/07/07 14:36:36;;;;;;;8.82;6.45;;;;;;;;;;5146021;27;20190;-70
2023/07/07 14:39:04;;;;;;;7.00;6.38;;;;;;;;;;5146136;27;20502;-70
2023/07/07 14:41:35;;;;;;;9.70;6.55;;;;;;;;;;5145864;27;20194;-70
2023/07/07 14:44:01;;;;;;;6.45;5.88;;;;;;;;;;5145549;27;20280;-70
2023/07/07 14:46:29;;;;;;;10.40;6.80;;;;;;;;;;5145723;27;20263;-70
2023/07/07 14:48:56;;;;;;;13.88;6.38;;;;;;;;;;5145787;27;20194;-70